Mogul, Nevada
Current Conditions -  °F | °C
As of 4:55 AM on Wednesday 22 Oct 2014 (Local Time) from KRNO Reporting Station
Clear Clear  
Wind Chill: 42°   Ceiling: Unl
Heat Index: 42°   Visibility: 10mi
Dew Point: 30°   Wind: 3mph
Humidity: 62%   Direction: 290°WNW
Pressure: 30.12"   Gusts: NA
Location:  39.5383°N, 119.938°W
Report Text: KRNO 221155Z 29003KT 10SM CLR 06/M01 A3012 RMK AO2 SLP177 T00561011 10089 20050 51003
Loading
Personal Weather Stations






























Interactive Weather Map
Tropical Storm Tracking
New forecast layout! Learn more

10-Day Weather Forecast

Advertisements
Track Severe Weather on mobile